Time;durP1;ratioP1;P1;durP2;ratioP2;P2;SDS_P1;SDS_P2;PMS_P1;PMS_P2;Temp;Humidity;BMP_temperature;BMP_pressure;BME280_temperature;BME280_humidity;BME280_pressure;Samples;Min_cycle;Max_cycle;Signal;HPM_P1;HPM_P2
2021/03/13 00:02:21;;;;;;;17.47;3.73;;;;;;;;;;5001283;28;20449;-79
2021/03/13 00:04:47;;;;;;;11.17;2.70;;;;;;;;;;5000735;28;20504;-77
2021/03/13 00:07:13;;;;;;;8.25;2.83;;;;;;;;;;5004172;28;20441;-81
2021/03/13 00:09:39;;;;;;;8.63;2.53;;;;;;;;;;5003831;28;20195;-84
2021/03/13 00:12:06;;;;;;;7.10;2.10;;;;;;;;;;4980016;28;20183;-82
2021/03/13 00:14:31;;;;;;;12.52;2.58;;;;;;;;;;4983435;28;20284;-79
2021/03/13 00:16:57;;;;;;;9.02;2.20;;;;;;;;;;5002111;28;20183;-81
2021/03/13 00:19:23;;;;;;;7.20;2.20;;;;;;;;;;5012880;28;20262;-81
2021/03/13 00:21:49;;;;;;;4.73;1.90;;;;;;;;;;5003409;28;20426;-81
2021/03/13 00:24:15;;;;;;;8.70;1.80;;;;;;;;;;4996524;28;20442;-79
2021/03/13 00:26:42;;;;;;;6.80;2.57;;;;;;;;;;4994317;28;20443;-82
2021/03/13 00:29:08;;;;;;;12.40;2.92;;;;;;;;;;4999376;28;20481;-81
2021/03/13 00:31:34;;;;;;;11.25;2.25;;;;;;;;;;4996055;28;20202;-80
2021/03/13 00:34:00;;;;;;;10.20;2.60;;;;;;;;;;4998712;28;20203;-80
2021/03/13 00:36:26;;;;;;;8.63;2.40;;;;;;;;;;4996014;28;20181;-82
2021/03/13 00:38:52;;;;;;;7.68;3.50;;;;;;;;;;4996197;28;20450;-82
2021/03/13 00:41:18;;;;;;;5.97;2.20;;;;;;;;;;4999612;28;20186;-80
2021/03/13 00:43:44;;;;;;;4.67;2.23;;;;;;;;;;4997699;28;20493;-81
2021/03/13 00:46:10;;;;;;;6.80;2.05;;;;;;;;;;4987724;28;20433;-81
2021/03/13 00:48:36;;;;;;;6.63;2.90;;;;;;;;;;4997427;28;20219;-81
2021/03/13 00:51:02;;;;;;;7.53;2.40;;;;;;;;;;4999228;28;20445;-79
2021/03/13 00:53:28;;;;;;;9.30;2.10;;;;;;;;;;4997291;28;20188;-77
2021/03/13 00:55:54;;;;;;;9.70;2.70;;;;;;;;;;4999094;28;20217;-80
2021/03/13 00:58:20;;;;;;;7.10;2.07;;;;;;;;;;4997278;28;20442;-81
2021/03/13 01:00:46;;;;;;;14.00;2.30;;;;;;;;;;5007092;28;20494;-81
2021/03/13 01:03:12;;;;;;;7.90;2.67;;;;;;;;;;4997620;28;20442;-82
2021/03/13 01:05:38;;;;;;;14.68;2.75;;;;;;;;;;4995873;28;20475;-82
2021/03/13 01:08:05;;;;;;;12.02;2.50;;;;;;;;;;5000447;28;20183;-81
2021/03/13 01:10:33;;;;;;;8.95;2.60;;;;;;;;;;4997109;28;20203;-80
2021/03/13 01:12:59;;;;;;;9.75;2.25;;;;;;;;;;4999123;28;20182;-82
2021/03/13 01:15:26;;;;;;;8.90;2.45;;;;;;;;;;4992375;28;20201;-79
2021/03/13 01:17:52;;;;;;;13.60;1.95;;;;;;;;;;4995073;28;20186;-81
2021/03/13 01:20:19;;;;;;;9.48;2.80;;;;;;;;;;4999240;28;20182;-81
2021/03/13 01:22:45;;;;;;;7.88;2.20;;;;;;;;;;4996283;28;20179;-81
2021/03/13 01:25:12;;;;;;;8.05;2.55;;;;;;;;;;4988608;28;20180;-82
2021/03/13 01:27:38;;;;;;;7.63;2.28;;;;;;;;;;4996776;28;20180;-81
2021/03/13 01:30:05;;;;;;;7.53;2.22;;;;;;;;;;4994194;28;20215;-80
2021/03/13 01:32:31;;;;;;;9.75;4.32;;;;;;;;;;4997625;28;20176;-80
2021/03/13 01:34:57;;;;;;;9.63;2.70;;;;;;;;;;4999713;28;20186;-81
2021/03/13 01:37:24;;;;;;;8.90;2.50;;;;;;;;;;4983545;28;20447;-80
2021/03/13 01:39:50;;;;;;;8.32;2.30;;;;;;;;;;4993785;28;20203;-81
2021/03/13 01:42:16;;;;;;;5.57;1.70;;;;;;;;;;4990433;28;20274;-83
2021/03/13 01:44:42;;;;;;;8.65;2.28;;;;;;;;;;4989730;28;20187;-80
2021/03/13 01:47:13;;;;;;;5.78;1.90;;;;;;;;;;5003150;28;20233;-81
2021/03/13 01:49:39;;;;;;;7.75;2.40;;;;;;;;;;5000884;28;20233;-80
2021/03/13 01:52:05;;;;;;;10.13;3.17;;;;;;;;;;5001726;28;20186;-81
2021/03/13 01:54:31;;;;;;;7.55;2.75;;;;;;;;;;5000242;28;20235;-81
2021/03/13 01:56:57;;;;;;;10.40;2.85;;;;;;;;;;4986285;28;20183;-80
2021/03/13 01:59:23;;;;;;;7.03;2.20;;;;;;;;;;5000957;28;20194;-76
2021/03/13 02:01:49;;;;;;;10.80;2.60;;;;;;;;;;4991446;28;20261;-79
2021/03/13 02:04:16;;;;;;;4.60;2.00;;;;;;;;;;5000566;28;20440;-79
2021/03/13 02:06:50;;;;;;;12.55;2.70;;;;;;;;;;5000844;28;20198;-80
2021/03/13 02:09:23;;;;;;;3.97;2.13;;;;;;;;;;4985606;28;20563;-79
2021/03/13 02:12:08;;;;;;;12.32;2.47;;;;;;;;;;4998279;28;20222;-80
2021/03/13 02:14:52;;;;;;;5.88;1.50;;;;;;;;;;4998993;28;20191;-82
2021/03/13 02:17:21;;;;;;;6.70;2.38;;;;;;;;;;4975366;28;20179;-80
2021/03/13 02:19:56;;;;;;;11.55;2.10;;;;;;;;;;5001737;28;20191;-81
2021/03/13 02:22:24;;;;;;;5.70;2.22;;;;;;;;;;5000666;28;20191;-77
2021/03/13 02:24:58;;;;;;;7.32;1.98;;;;;;;;;;4997405;28;20176;-80
2021/03/13 02:27:40;;;;;;;9.32;3.45;;;;;;;;;;4999993;28;21138;-81
2021/03/13 02:30:18;;;;;;;10.27;2.58;;;;;;;;;;4998598;28;20210;-81
2021/03/13 02:32:54;;;;;;;7.57;2.50;;;;;;;;;;4986445;28;20190;-81
2021/03/13 02:35:26;;;;;;;11.35;3.15;;;;;;;;;;5001444;28;20167;-81
2021/03/13 02:37:53;;;;;;;10.95;2.47;;;;;;;;;;5002022;28;20226;-83
2021/03/13 02:40:22;;;;;;;12.38;3.28;;;;;;;;;;5009601;28;20989;-80
2021/03/13 02:42:55;;;;;;;7.55;2.35;;;;;;;;;;5000892;28;20194;-81
2021/03/13 02:45:23;;;;;;;10.57;2.70;;;;;;;;;;4981043;28;20229;-80
2021/03/13 02:47:49;;;;;;;6.28;2.25;;;;;;;;;;5002422;28;20230;-81
2021/03/13 02:50:16;;;;;;;5.03;2.05;;;;;;;;;;5010664;28;20226;-82
2021/03/13 02:52:42;;;;;;;8.10;1.80;;;;;;;;;;5002677;28;20202;-81
2021/03/13 02:55:11;;;;;;;12.75;2.80;;;;;;;;;;5004762;28;20286;-80
2021/03/13 02:57:38;;;;;;;8.95;1.95;;;;;;;;;;4987995;28;20229;-81
2021/03/13 03:00:06;;;;;;;5.60;2.30;;;;;;;;;;5002248;28;20183;-80
2021/03/13 03:02:32;;;;;;;6.60;2.33;;;;;;;;;;5004708;28;20187;-81
2021/03/13 03:04:59;;;;;;;6.72;1.98;;;;;;;;;;5002962;28;20251;-80
2021/03/13 03:07:27;;;;;;;6.57;2.40;;;;;;;;;;4991577;28;20226;-81
2021/03/13 03:09:53;;;;;;;6.82;1.88;;;;;;;;;;5016547;28;20213;-77
2021/03/13 03:12:20;;;;;;;9.25;2.45;;;;;;;;;;5004703;28;20235;-81
2021/03/13 03:14:46;;;;;;;7.55;2.42;;;;;;;;;;5004061;28;20460;-81
2021/03/13 03:17:13;;;;;;;5.10;2.00;;;;;;;;;;4994200;28;20714;-81
2021/03/13 03:19:41;;;;;;;8.25;2.45;;;;;;;;;;5002734;28;20188;-82
2021/03/13 03:22:07;;;;;;;7.47;1.90;;;;;;;;;;5004859;28;20179;-81
2021/03/13 03:24:34;;;;;;;11.63;2.50;;;;;;;;;;5004086;28;20187;-82
2021/03/13 03:27:00;;;;;;;7.75;3.47;;;;;;;;;;4984362;28;20221;-81
2021/03/13 03:29:26;;;;;;;8.30;2.47;;;;;;;;;;4985214;28;20207;-81
2021/03/13 03:31:53;;;;;;;7.88;2.25;;;;;;;;;;5003033;28;20179;-80
2021/03/13 03:34:19;;;;;;;12.88;2.20;;;;;;;;;;4986858;28;20710;-80
2021/03/13 03:36:45;;;;;;;6.68;2.22;;;;;;;;;;5008671;28;20569;-81
2021/03/13 03:39:11;;;;;;;7.90;2.55;;;;;;;;;;4996943;28;20179;-84
2021/03/13 03:41:39;;;;;;;7.57;1.95;;;;;;;;;;4996527;28;20183;-80
2021/03/13 03:44:26;;;;;;;6.72;2.70;;;;;;;;;;4993996;28;20203;-80
2021/03/13 03:46:54;;;;;;;4.72;1.80;;;;;;;;;;5001902;28;20183;-80
2021/03/13 03:49:21;;;;;;;7.43;1.88;;;;;;;;;;4977984;28;20287;-81
2021/03/13 03:51:48;;;;;;;5.57;1.92;;;;;;;;;;5005717;28;20183;-82
2021/03/13 03:54:15;;;;;;;8.50;2.25;;;;;;;;;;4996573;28;20241;-81
2021/03/13 03:56:41;;;;;;;8.88;2.00;;;;;;;;;;4996599;28;20207;-82
2021/03/13 03:59:09;;;;;;;13.15;2.65;;;;;;;;;;5011011;28;20187;-81
2021/03/13 04:01:35;;;;;;;6.80;1.60;;;;;;;;;;4997140;28;20210;-81
2021/03/13 04:04:02;;;;;;;8.35;2.42;;;;;;;;;;4999493;28;20241;-81
2021/03/13 04:06:29;;;;;;;7.45;1.88;;;;;;;;;;4997821;28;20171;-80
2021/03/13 04:08:57;;;;;;;5.22;1.73;;;;;;;;;;4994692;28;20306;-81
2021/03/13 04:11:24;;;;;;;5.38;1.88;;;;;;;;;;4997612;28;20192;-79
2021/03/13 04:13:52;;;;;;;5.53;1.98;;;;;;;;;;5010243;28;20175;-81
2021/03/13 04:16:18;;;;;;;4.32;1.83;;;;;;;;;;4997554;28;20183;-80
2021/03/13 04:18:44;;;;;;;10.80;1.50;;;;;;;;;;4994612;28;20180;-83
2021/03/13 04:21:13;;;;;;;4.30;1.60;;;;;;;;;;4995262;28;20183;-80
2021/03/13 04:23:42;;;;;;;6.50;1.58;;;;;;;;;;4983856;28;20251;-79
2021/03/13 04:26:08;;;;;;;4.65;1.80;;;;;;;;;;4998760;28;20198;-81
2021/03/13 04:28:34;;;;;;;5.22;2.20;;;;;;;;;;4996110;28;20187;-81
2021/03/13 04:31:00;;;;;;;5.97;1.70;;;;;;;;;;5000210;28;20187;-80
2021/03/13 04:33:27;;;;;;;9.38;2.33;;;;;;;;;;4997314;28;20231;-83
2021/03/13 04:35:53;;;;;;;9.98;2.88;;;;;;;;;;4995851;28;20183;-80
2021/03/13 04:38:20;;;;;;;9.60;2.42;;;;;;;;;;4980919;28;20545;-80
2021/03/13 04:40:47;;;;;;;6.07;1.70;;;;;;;;;;4998958;28;20202;-81
2021/03/13 04:43:14;;;;;;;8.65;1.85;;;;;;;;;;4987448;28;20275;-81
2021/03/13 04:45:40;;;;;;;8.70;2.63;;;;;;;;;;5006125;28;20185;-79
2021/03/13 04:48:07;;;;;;;7.13;1.90;;;;;;;;;;4998193;28;20290;-81
2021/03/13 04:50:33;;;;;;;6.80;2.72;;;;;;;;;;4996479;28;20561;-80
2021/03/13 04:52:59;;;;;;;5.78;2.17;;;;;;;;;;5000592;28;20673;-81
2021/03/13 04:55:25;;;;;;;15.68;2.83;;;;;;;;;;4996620;28;20949;-78
2021/03/13 04:57:51;;;;;;;11.23;2.45;;;;;;;;;;4999115;28;20175;-82
2021/03/13 05:00:17;;;;;;;11.25;2.28;;;;;;;;;;4983884;28;20183;-83
2021/03/13 05:02:43;;;;;;;10.18;2.47;;;;;;;;;;4995784;28;20197;-85
2021/03/13 05:05:10;;;;;;;7.18;2.08;;;;;;;;;;4999647;28;20187;-80
2021/03/13 05:07:36;;;;;;;6.63;1.90;;;;;;;;;;4996911;28;20187;-81
2021/03/13 05:10:03;;;;;;;7.07;1.83;;;;;;;;;;4998292;28;20209;-81
2021/03/13 05:12:29;;;;;;;9.50;2.17;;;;;;;;;;4997659;28;20199;-81
2021/03/13 05:14:55;;;;;;;9.57;1.95;;;;;;;;;;4995582;28;20187;-79
2021/03/13 05:17:21;;;;;;;6.90;1.70;;;;;;;;;;4998034;28;20258;-82
2021/03/13 05:19:47;;;;;;;4.78;1.40;;;;;;;;;;4997286;28;20450;-78
2021/03/13 05:22:12;;;;;;;5.45;1.73;;;;;;;;;;5002050;28;20190;-82
2021/03/13 05:24:38;;;;;;;3.07;1.20;;;;;;;;;;4994428;28;20179;-83
2021/03/13 05:27:05;;;;;;;6.32;1.60;;;;;;;;;;4994103;28;20921;-79
2021/03/13 05:29:31;;;;;;;4.15;1.33;;;;;;;;;;4995333;28;20303;-83
2021/03/13 05:31:57;;;;;;;5.03;1.60;;;;;;;;;;4995314;28;20180;-82
2021/03/13 05:34:23;;;;;;;7.47;1.70;;;;;;;;;;5001145;28;20184;-82
2021/03/13 05:36:49;;;;;;;7.43;1.70;;;;;;;;;;4998109;28;20232;-81
2021/03/13 05:39:15;;;;;;;4.88;1.90;;;;;;;;;;4995126;28;20434;-85
2021/03/13 05:41:42;;;;;;;4.43;1.20;;;;;;;;;;4994812;28;20188;-84
2021/03/13 05:44:08;;;;;;;3.70;1.73;;;;;;;;;;4997869;28;20211;-84
2021/03/13 05:46:38;;;;;;;3.33;1.50;;;;;;;;;;4996272;28;20199;-85
2021/03/13 05:49:07;;;;;;;5.78;1.50;;;;;;;;;;4997556;28;20231;-85
2021/03/13 05:51:35;;;;;;;5.53;1.67;;;;;;;;;;4998428;28;20174;-84
2021/03/13 05:54:02;;;;;;;6.00;1.55;;;;;;;;;;4985704;28;20668;-82
2021/03/13 05:56:29;;;;;;;5.45;1.85;;;;;;;;;;5003372;28;20192;-83
2021/03/13 05:58:55;;;;;;;3.42;1.10;;;;;;;;;;4999011;28;20419;-80
2021/03/13 06:01:21;;;;;;;5.93;1.40;;;;;;;;;;4994778;28;20192;-80
2021/03/13 06:03:47;;;;;;;6.03;1.35;;;;;;;;;;4992804;28;20187;-79
2021/03/13 06:06:13;;;;;;;2.88;0.90;;;;;;;;;;4994234;28;20183;-79
2021/03/13 06:08:39;;;;;;;3.28;1.50;;;;;;;;;;4999218;28;20183;-79
2021/03/13 06:11:05;;;;;;;2.10;1.20;;;;;;;;;;5005839;28;20222;-81
2021/03/13 06:13:33;;;;;;;1.13;0.80;;;;;;;;;;4996958;28;20184;-84
2021/03/13 06:15:59;;;;;;;1.35;0.60;;;;;;;;;;4989088;28;20256;-81
2021/03/13 06:18:45;;;;;;;2.00;0.95;;;;;;;;;;4993790;28;20179;-80
2021/03/13 06:21:20;;;;;;;1.98;0.73;;;;;;;;;;4994775;28;20183;-81
2021/03/13 06:23:46;;;;;;;5.57;0.98;;;;;;;;;;4993564;28;20192;-81
2021/03/13 06:26:12;;;;;;;3.63;1.47;;;;;;;;;;4998141;28;20187;-83
2021/03/13 06:28:38;;;;;;;4.30;1.10;;;;;;;;;;4996061;28;20506;-83
2021/03/13 06:31:07;;;;;;;2.80;0.70;;;;;;;;;;4990611;28;20183;-79
2021/03/13 06:33:34;;;;;;;0.82;0.70;;;;;;;;;;4999744;28;20418;-82
2021/03/13 06:36:01;;;;;;;2.70;0.80;;;;;;;;;;4983721;28;20186;-80
2021/03/13 06:38:28;;;;;;;3.17;1.13;;;;;;;;;;4999525;28;20242;-79
2021/03/13 06:40:55;;;;;;;5.13;1.33;;;;;;;;;;5008078;28;20191;-81
2021/03/13 06:43:22;;;;;;;1.60;0.70;;;;;;;;;;5003897;28;20184;-81
2021/03/13 06:46:02;;;;;;;3.13;1.10;;;;;;;;;;4997123;28;20199;-81
2021/03/13 06:48:34;;;;;;;4.57;1.10;;;;;;;;;;5001552;28;20219;-79
2021/03/13 06:51:14;;;;;;;2.97;1.10;;;;;;;;;;4997692;28;20203;-80
2021/03/13 06:53:40;;;;;;;3.17;1.10;;;;;;;;;;5003417;28;20191;-78
2021/03/13 06:56:10;;;;;;;3.83;1.63;;;;;;;;;;4984795;28;20306;-78
2021/03/13 06:58:36;;;;;;;3.80;0.90;;;;;;;;;;4998898;28;20188;-80
2021/03/13 07:01:03;;;;;;;5.38;1.13;;;;;;;;;;5001336;28;20186;-81
2021/03/13 07:03:29;;;;;;;2.85;1.00;;;;;;;;;;5001833;28;20300;-80
2021/03/13 07:05:55;;;;;;;6.10;1.50;;;;;;;;;;4997453;28;20192;-84
2021/03/13 07:08:24;;;;;;;2.70;1.05;;;;;;;;;;4996878;28;20451;-81
2021/03/13 07:10:53;;;;;;;2.20;1.00;;;;;;;;;;5001248;28;20214;-80
2021/03/13 07:13:36;;;;;;;2.38;1.00;;;;;;;;;;5003668;28;20183;-82
2021/03/13 07:16:21;;;;;;;6.40;1.25;;;;;;;;;;5002087;28;20633;-80
2021/03/13 07:18:47;;;;;;;3.97;1.52;;;;;;;;;;5005966;28;20206;-80
2021/03/13 07:21:14;;;;;;;2.35;1.17;;;;;;;;;;4985222;28;20381;-79
2021/03/13 07:23:42;;;;;;;3.88;1.33;;;;;;;;;;4997515;28;20180;-81
2021/03/13 07:26:09;;;;;;;4.35;1.77;;;;;;;;;;5001637;28;20202;-78
2021/03/13 07:28:37;;;;;;;2.88;1.38;;;;;;;;;;4998465;28;20183;-79
2021/03/13 07:31:03;;;;;;;7.40;2.83;;;;;;;;;;5015069;28;20214;-79
2021/03/13 07:33:30;;;;;;;4.53;1.50;;;;;;;;;;4997192;28;20187;-78
2021/03/13 07:35:56;;;;;;;5.35;1.52;;;;;;;;;;4997036;28;20680;-80
2021/03/13 07:38:22;;;;;;;3.67;1.35;;;;;;;;;;4983120;28;20514;-80
2021/03/13 07:40:48;;;;;;;3.75;1.50;;;;;;;;;;5001534;28;20673;-79
2021/03/13 07:43:16;;;;;;;12.35;1.90;;;;;;;;;;4997569;28;20189;-79
2021/03/13 07:45:42;;;;;;;7.72;1.83;;;;;;;;;;4999551;28;20187;-80
2021/03/13 07:48:11;;;;;;;5.82;2.05;;;;;;;;;;4996529;28;20354;-80
2021/03/13 07:50:39;;;;;;;6.00;2.28;;;;;;;;;;4996597;28;20594;-81
2021/03/13 07:53:06;;;;;;;3.80;1.30;;;;;;;;;;4998931;28;20177;-79
2021/03/13 07:55:32;;;;;;;4.00;1.90;;;;;;;;;;5000964;28;20544;-82
2021/03/13 07:57:58;;;;;;;6.50;2.85;;;;;;;;;;5002236;28;20190;-78
2021/03/13 08:00:51;;;;;;;4.93;1.85;;;;;;;;;;4997335;28;20210;-81
2021/03/13 08:03:32;;;;;;;5.95;1.60;;;;;;;;;;4977423;28;20287;-78
2021/03/13 08:05:59;;;;;;;6.63;1.70;;;;;;;;;;4996905;28;20186;-78
2021/03/13 08:08:42;;;;;;;2.88;1.58;;;;;;;;;;4999127;28;20204;-80
2021/03/13 08:11:12;;;;;;;7.70;1.95;;;;;;;;;;5005324;28;20630;-80
2021/03/13 08:13:38;;;;;;;5.05;1.75;;;;;;;;;;5001349;28;20215;-80
2021/03/13 08:16:08;;;;;;;13.55;1.92;;;;;;;;;;4998846;28;20171;-78
2021/03/13 08:18:41;;;;;;;9.45;1.60;;;;;;;;;;5007522;28;20178;-80
2021/03/13 08:21:27;;;;;;;6.13;1.60;;;;;;;;;;5004240;28;20302;-80
2021/03/13 08:23:55;;;;;;;11.55;2.08;;;;;;;;;;4978459;28;20291;-78
2021/03/13 08:26:22;;;;;;;10.48;2.00;;;;;;;;;;5000568;28;20598;-79
2021/03/13 08:28:48;;;;;;;6.35;1.58;;;;;;;;;;4999737;28;20195;-82
2021/03/13 08:31:23;;;;;;;7.35;2.35;;;;;;;;;;5001366;28;20182;-79
2021/03/13 08:33:50;;;;;;;8.00;2.45;;;;;;;;;;4999031;28;20202;-78
2021/03/13 08:36:17;;;;;;;4.57;1.27;;;;;;;;;;5000097;28;20184;-79
2021/03/13 08:38:52;;;;;;;8.20;3.35;;;;;;;;;;4983999;28;20176;-80
2021/03/13 08:41:38;;;;;;;6.75;2.00;;;;;;;;;;4974485;28;20194;-81
2021/03/13 08:44:04;;;;;;;6.18;2.47;;;;;;;;;;5009996;28;20191;-79
2021/03/13 08:46:41;;;;;;;9.82;1.90;;;;;;;;;;4998312;28;20217;-77
2021/03/13 08:49:07;;;;;;;5.65;2.17;;;;;;;;;;5002123;28;20214;-78
2021/03/13 08:51:34;;;;;;;9.45;2.30;;;;;;;;;;4996729;28;20163;-81
2021/03/13 08:54:00;;;;;;;5.68;1.90;;;;;;;;;;4984471;28;20196;-78
2021/03/13 08:56:35;;;;;;;5.75;1.50;;;;;;;;;;4996906;28;20200;-82
2021/03/13 08:59:08;;;;;;;5.18;1.80;;;;;;;;;;4982469;28;20511;-81
2021/03/13 09:01:34;;;;;;;9.25;2.60;;;;;;;;;;4986756;28;20194;-85
2021/03/13 09:04:01;;;;;;;11.05;1.67;;;;;;;;;;5014130;28;20190;-82
2021/03/13 09:06:27;;;;;;;5.97;1.80;;;;;;;;;;4995183;28;20176;-83
2021/03/13 09:09:07;;;;;;;4.83;2.20;;;;;;;;;;4995872;28;20303;-82
2021/03/13 09:11:33;;;;;;;12.95;2.17;;;;;;;;;;5001849;28;20450;-83
2021/03/13 09:14:00;;;;;;;3.15;1.48;;;;;;;;;;5001241;28;20243;-84
2021/03/13 09:16:26;;;;;;;4.20;0.90;;;;;;;;;;4997858;28;20183;-83
2021/03/13 09:18:55;;;;;;;7.68;1.50;;;;;;;;;;5002242;28;20182;-84
2021/03/13 09:21:38;;;;;;;6.57;1.77;;;;;;;;;;4984497;28;20189;-81
2021/03/13 09:24:04;;;;;;;4.28;1.70;;;;;;;;;;5000777;28;20191;-79
2021/03/13 09:26:31;;;;;;;5.07;1.60;;;;;;;;;;5005544;28;20193;-82
2021/03/13 09:28:57;;;;;;;10.65;1.70;;;;;;;;;;5000441;28;20189;-83
2021/03/13 09:31:23;;;;;;;5.32;1.90;;;;;;;;;;4982766;28;20641;-82
2021/03/13 09:33:49;;;;;;;3.80;1.50;;;;;;;;;;4998755;28;20186;-80
2021/03/13 09:36:15;;;;;;;7.05;2.00;;;;;;;;;;4996470;28;20430;-82
2021/03/13 09:38:53;;;;;;;11.07;2.72;;;;;;;;;;4995043;28;20190;-80
2021/03/13 09:41:19;;;;;;;6.88;1.90;;;;;;;;;;4997396;28;20186;-78
2021/03/13 09:43:45;;;;;;;7.30;1.92;;;;;;;;;;4998400;28;20226;-80
2021/03/13 09:46:18;;;;;;;9.33;2.77;;;;;;;;;;5002825;28;20187;-83
2021/03/13 09:48:44;;;;;;;17.25;4.00;;;;;;;;;;4996989;28;20481;-82
2021/03/13 09:51:10;;;;;;;8.30;2.28;;;;;;;;;;5000401;28;20187;-82
2021/03/13 09:53:40;;;;;;;9.90;3.20;;;;;;;;;;4999957;28;20194;-79
2021/03/13 09:56:06;;;;;;;14.25;3.50;;;;;;;;;;4992266;28;20182;-80
2021/03/13 09:58:33;;;;;;;14.15;3.10;;;;;;;;;;4999028;28;20242;-81
2021/03/13 10:00:59;;;;;;;10.15;2.83;;;;;;;;;;4989493;28;20183;-82
2021/03/13 10:03:25;;;;;;;10.18;3.10;;;;;;;;;;5000480;28;20330;-80
2021/03/13 10:05:55;;;;;;;8.65;2.63;;;;;;;;;;4999337;28;20218;-81
2021/03/13 10:08:22;;;;;;;7.43;2.17;;;;;;;;;;4985756;28;20283;-82
2021/03/13 10:10:49;;;;;;;9.88;2.92;;;;;;;;;;5004501;28;20211;-79
2021/03/13 10:13:15;;;;;;;11.15;2.63;;;;;;;;;;5005209;28;20187;-80
2021/03/13 10:15:42;;;;;;;8.07;3.28;;;;;;;;;;5005676;28;20179;-79
2021/03/13 10:18:14;;;;;;;6.93;3.20;;;;;;;;;;5004943;28;20202;-82
2021/03/13 10:20:40;;;;;;;16.45;3.20;;;;;;;;;;4986152;28;20542;-79
2021/03/13 10:23:07;;;;;;;15.43;3.45;;;;;;;;;;5010602;28;20286;-82
2021/03/13 10:25:35;;;;;;;11.05;2.90;;;;;;;;;;5003076;28;20191;-81
2021/03/13 10:28:08;;;;;;;12.45;3.03;;;;;;;;;;5017154;28;20188;-82
2021/03/13 10:30:34;;;;;;;14.15;3.03;;;;;;;;;;5005222;28;20195;-81
2021/03/13 10:33:00;;;;;;;8.82;3.30;;;;;;;;;;4985704;28;21042;-79
2021/03/13 10:35:27;;;;;;;9.10;2.60;;;;;;;;;;5003680;28;20179;-80
2021/03/13 10:37:55;;;;;;;15.77;3.53;;;;;;;;;;5001877;28;20175;-78
2021/03/13 10:40:30;;;;;;;7.80;2.25;;;;;;;;;;4986874;28;20227;-80
2021/03/13 10:43:32;;;;;;;8.32;3.05;;;;;;;;;;5003321;28;20179;-80
2021/03/13 10:45:58;;;;;;;11.50;2.80;;;;;;;;;;4904156;29;20182;-79
2021/03/13 10:48:29;;;;;;;8.90;2.63;;;;;;;;;;4901812;29;20255;-80
2021/03/13 10:50:55;;;;;;;9.70;2.80;;;;;;;;;;4907544;29;20489;-81
2021/03/13 10:53:28;;;;;;;10.90;2.90;;;;;;;;;;4907388;29;20202;-78
2021/03/13 10:55:55;;;;;;;15.05;3.50;;;;;;;;;;4892808;29;20186;-80
2021/03/13 10:58:22;;;;;;;7.28;2.47;;;;;;;;;;4915804;29;20190;-80
2021/03/13 11:00:48;;;;;;;6.95;2.50;;;;;;;;;;4906511;29;20205;-80
2021/03/13 11:03:14;;;;;;;6.53;3.13;;;;;;;;;;4892298;29;20254;-81
2021/03/13 11:05:40;;;;;;;12.85;3.45;;;;;;;;;;4906546;29;20277;-81
2021/03/13 11:08:06;;;;;;;10.90;3.53;;;;;;;;;;4912466;29;20245;-80
2021/03/13 11:10:32;;;;;;;10.03;2.53;;;;;;;;;;4906948;29;20503;-80
2021/03/13 11:12:58;;;;;;;9.02;2.75;;;;;;;;;;4908817;29;20446;-78
2021/03/13 11:15:24;;;;;;;10.43;2.33;;;;;;;;;;4907457;29;20214;-81
2021/03/13 11:17:50;;;;;;;6.47;2.40;;;;;;;;;;4905428;29;20453;-81
2021/03/13 11:20:16;;;;;;;5.90;2.30;;;;;;;;;;4960852;28;20450;-82
2021/03/13 11:22:42;;;;;;;5.47;1.63;;;;;;;;;;4999368;28;20443;-80
2021/03/13 11:25:08;;;;;;;6.83;1.47;;;;;;;;;;4999564;28;20482;-80
2021/03/13 11:27:34;;;;;;;4.63;1.80;;;;;;;;;;4999271;28;20465;-83
2021/03/13 11:30:00;;;;;;;3.47;1.43;;;;;;;;;;4996574;28;20219;-79
2021/03/13 11:32:26;;;;;;;5.90;1.50;;;;;;;;;;5000537;28;20447;-82
2021/03/13 11:34:52;;;;;;;3.25;1.50;;;;;;;;;;4999841;28;20268;-80
2021/03/13 11:37:18;;;;;;;14.48;2.45;;;;;;;;;;4993544;28;20217;-81
2021/03/13 11:39:44;;;;;;;6.33;1.97;;;;;;;;;;5005053;28;20181;-82
2021/03/13 11:42:10;;;;;;;5.25;1.60;;;;;;;;;;4981594;28;20473;-78
2021/03/13 11:44:36;;;;;;;6.82;1.77;;;;;;;;;;5001726;28;20192;-82
2021/03/13 11:47:02;;;;;;;4.75;1.50;;;;;;;;;;5001194;28;20277;-80
2021/03/13 11:49:28;;;;;;;8.07;2.00;;;;;;;;;;4997585;28;20247;-82
2021/03/13 11:51:54;;;;;;;5.67;2.10;;;;;;;;;;5002177;28;20225;-82
2021/03/13 11:54:20;;;;;;;3.93;1.70;;;;;;;;;;5002544;28;20438;-80
2021/03/13 11:56:46;;;;;;;4.77;2.10;;;;;;;;;;4984262;28;20497;-80
2021/03/13 11:59:12;;;;;;;5.53;1.98;;;;;;;;;;5000922;28;20434;-79
2021/03/13 12:01:38;;;;;;;4.67;1.73;;;;;;;;;;4997523;28;20187;-80
2021/03/13 12:04:04;;;;;;;8.37;1.73;;;;;;;;;;4999644;28;20780;-83
2021/03/13 12:06:30;;;;;;;4.90;2.45;;;;;;;;;;4997360;28;20920;-82
2021/03/13 12:08:56;;;;;;;10.13;2.40;;;;;;;;;;5001889;28;20202;-81
2021/03/13 12:11:22;;;;;;;7.40;2.23;;;;;;;;;;5001846;28;20481;-82
2021/03/13 12:13:48;;;;;;;5.67;2.20;;;;;;;;;;5001450;28;20531;-82
2021/03/13 12:16:14;;;;;;;11.23;2.90;;;;;;;;;;5003908;28;21006;-81
2021/03/13 12:18:40;;;;;;;7.80;2.53;;;;;;;;;;5004645;28;20167;-82
2021/03/13 12:21:06;;;;;;;14.77;2.60;;;;;;;;;;5003259;28;20190;-81
2021/03/13 12:23:32;;;;;;;8.43;2.38;;;;;;;;;;5003449;28;20912;-79
2021/03/13 12:25:58;;;;;;;7.90;3.10;;;;;;;;;;4999493;28;20183;-83
2021/03/13 12:28:24;;;;;;;7.23;3.00;;;;;;;;;;4991792;28;20554;-79
2021/03/13 12:30:50;;;;;;;6.43;2.10;;;;;;;;;;5005265;28;20496;-81
2021/03/13 12:33:16;;;;;;;5.30;2.28;;;;;;;;;;4996186;28;20711;-82
2021/03/13 12:35:42;;;;;;;7.27;2.30;;;;;;;;;;4996681;28;20192;-80
2021/03/13 12:38:08;;;;;;;6.10;1.73;;;;;;;;;;4983048;28;20430;-83
2021/03/13 12:40:34;;;;;;;8.77;2.33;;;;;;;;;;4996800;28;20447;-81
2021/03/13 12:43:00;;;;;;;6.63;2.08;;;;;;;;;;4998546;28;20270;-79
2021/03/13 12:45:26;;;;;;;5.90;2.33;;;;;;;;;;4995229;28;20187;-82
2021/03/13 12:47:52;;;;;;;5.57;2.35;;;;;;;;;;4982893;28;20486;-80
2021/03/13 12:50:18;;;;;;;4.15;2.28;;;;;;;;;;5000078;28;20226;-83
2021/03/13 12:52:44;;;;;;;5.40;2.67;;;;;;;;;;5009692;28;20482;-82
2021/03/13 12:55:11;;;;;;;9.27;2.77;;;;;;;;;;5003673;28;20170;-83
2021/03/13 12:57:37;;;;;;;6.47;2.75;;;;;;;;;;5001972;28;20461;-80
2021/03/13 13:00:04;;;;;;;6.80;2.20;;;;;;;;;;5002624;28;20183;-82
2021/03/13 13:02:30;;;;;;;5.95;2.22;;;;;;;;;;4999816;28;20187;-81
2021/03/13 13:04:56;;;;;;;6.03;2.08;;;;;;;;;;4994964;28;20645;-81
2021/03/13 13:07:22;;;;;;;6.77;2.20;;;;;;;;;;5000977;28;20227;-81
2021/03/13 13:09:48;;;;;;;7.80;1.83;;;;;;;;;;4999188;28;20457;-79
2021/03/13 13:12:14;;;;;;;6.88;2.15;;;;;;;;;;4983155;28;20222;-81
2021/03/13 13:14:40;;;;;;;5.93;1.97;;;;;;;;;;4983305;28;20257;-84
2021/03/13 13:17:06;;;;;;;4.53;1.90;;;;;;;;;;5000131;28;20437;-84
2021/03/13 13:19:33;;;;;;;6.80;2.30;;;;;;;;;;4996380;28;20447;-81
2021/03/13 13:21:59;;;;;;;6.38;1.55;;;;;;;;;;4989837;28;20189;-78
2021/03/13 13:24:25;;;;;;;9.48;2.60;;;;;;;;;;4996889;28;20216;-81
2021/03/13 13:26:51;;;;;;;6.30;2.43;;;;;;;;;;5000177;28;20191;-79
2021/03/13 13:29:17;;;;;;;6.53;1.88;;;;;;;;;;4998739;28;20538;-80
2021/03/13 13:31:43;;;;;;;4.47;2.00;;;;;;;;;;4997752;28;20187;-82
2021/03/13 13:34:09;;;;;;;7.07;2.20;;;;;;;;;;5002493;28;20192;-82
2021/03/13 13:36:35;;;;;;;7.68;2.40;;;;;;;;;;5000531;28;20425;-81
2021/03/13 13:39:01;;;;;;;8.43;2.50;;;;;;;;;;4997117;28;20201;-81
2021/03/13 13:41:27;;;;;;;13.38;5.53;;;;;;;;;;5005329;28;20187;-82
2021/03/13 13:43:53;;;;;;;10.65;2.60;;;;;;;;;;5006733;28;20179;-80
2021/03/13 13:46:19;;;;;;;10.25;2.35;;;;;;;;;;5004043;28;20263;-79
2021/03/13 13:48:45;;;;;;;6.50;2.37;;;;;;;;;;5004345;28;20227;-81
2021/03/13 13:51:11;;;;;;;5.30;1.92;;;;;;;;;;5003376;28;20500;-78
2021/03/13 13:53:37;;;;;;;9.70;2.50;;;;;;;;;;5005469;28;20281;-80
2021/03/13 13:56:03;;;;;;;12.55;3.03;;;;;;;;;;4987531;28;20704;-78
2021/03/13 13:58:29;;;;;;;10.10;3.17;;;;;;;;;;4987854;28;20669;-80
2021/03/13 14:00:55;;;;;;;6.25;2.67;;;;;;;;;;5009507;28;20183;-79
2021/03/13 14:03:21;;;;;;;6.17;1.70;;;;;;;;;;5006618;28;20222;-82
2021/03/13 14:05:47;;;;;;;5.35;3.10;;;;;;;;;;4988834;28;20454;-77
2021/03/13 14:08:13;;;;;;;10.18;2.75;;;;;;;;;;5004446;28;20194;-84
2021/03/13 14:10:39;;;;;;;4.90;1.92;;;;;;;;;;4989492;28;20206;-77
2021/03/13 14:13:05;;;;;;;4.78;1.70;;;;;;;;;;5005321;28;20382;-80
2021/03/13 14:15:31;;;;;;;5.67;1.57;;;;;;;;;;5007176;28;20283;-79
2021/03/13 14:17:57;;;;;;;2.50;1.53;;;;;;;;;;4994158;28;20450;-81
2021/03/13 14:20:23;;;;;;;9.73;2.10;;;;;;;;;;5005757;28;20704;-82
2021/03/13 14:22:50;;;;;;;4.10;1.77;;;;;;;;;;5004956;28;20355;-80
2021/03/13 14:25:17;;;;;;;5.82;2.20;;;;;;;;;;5005654;28;20179;-80
2021/03/13 14:27:43;;;;;;;3.50;1.75;;;;;;;;;;5005495;28;20175;-79
2021/03/13 14:30:10;;;;;;;8.52;2.25;;;;;;;;;;5003118;28;20329;-79
2021/03/13 14:32:37;;;;;;;9.02;2.20;;;;;;;;;;5003033;28;20187;-83
2021/03/13 14:35:05;;;;;;;2.58;1.55;;;;;;;;;;5005103;28;20190;-79
2021/03/13 14:37:31;;;;;;;4.85;1.67;;;;;;;;;;5004015;28;20187;-77
2021/03/13 14:39:57;;;;;;;4.47;1.37;;;;;;;;;;5005109;28;20221;-79
2021/03/13 14:42:23;;;;;;;2.47;1.83;;;;;;;;;;5004530;28;20958;-79
2021/03/13 14:44:49;;;;;;;10.32;1.73;;;;;;;;;;5004659;28;20485;-79